Time;durP1;ratioP1;P1;durP2;ratioP2;P2;SDS_P1;SDS_P2;PMS_P1;PMS_P2;Temp;Humidity;BMP_temperature;BMP_pressure;BME280_temperature;BME280_humidity;BME280_pressure;Samples;Min_cycle;Max_cycle;Signal;HPM_P1;HPM_P2
2021/10/27 00:02:15;;;;;;;4.53;3.10;;;;;;;;;;5824882;24;32201;-67
2021/10/27 00:04:43;;;;;;;4.15;2.88;;;;;;;;;;5824342;24;32253;-67
2021/10/27 00:07:09;;;;;;;5.07;2.85;;;;;;;;;;5824736;24;32394;-65
2021/10/27 00:09:36;;;;;;;4.93;3.25;;;;;;;;;;5824737;24;32097;-66
2021/10/27 00:12:04;;;;;;;4.28;2.63;;;;;;;;;;5824470;24;35123;-66
2021/10/27 00:14:31;;;;;;;3.60;2.63;;;;;;;;;;5824433;24;32259;-66
2021/10/27 00:16:57;;;;;;;3.70;3.20;;;;;;;;;;5824429;24;32144;-66
2021/10/27 00:19:24;;;;;;;4.15;3.75;;;;;;;;;;5824785;24;32305;-65
2021/10/27 00:21:52;;;;;;;4.20;2.90;;;;;;;;;;5824252;24;34328;-65
2021/10/27 00:24:19;;;;;;;5.93;2.15;;;;;;;;;;5824597;24;32312;-66
2021/10/27 00:26:46;;;;;;;4.63;2.85;;;;;;;;;;5824344;24;32319;-66
2021/10/27 00:29:12;;;;;;;5.97;3.10;;;;;;;;;;5824444;24;32225;-66
2021/10/27 00:31:39;;;;;;;4.53;2.53;;;;;;;;;;5824668;24;32285;-66
2021/10/27 00:34:06;;;;;;;3.97;2.70;;;;;;;;;;5824379;24;35231;-66
2021/10/27 00:36:32;;;;;;;4.20;2.38;;;;;;;;;;5824159;24;32240;-66
2021/10/27 00:39:00;;;;;;;4.55;4.00;;;;;;;;;;5824437;24;32452;-66
2021/10/27 00:41:27;;;;;;;4.18;3.38;;;;;;;;;;5824561;24;32111;-67
2021/10/27 00:43:54;;;;;;;4.80;2.70;;;;;;;;;;5824287;24;34078;-67
2021/10/27 00:46:22;;;;;;;4.53;2.42;;;;;;;;;;5824276;24;32275;-66
2021/10/27 00:48:50;;;;;;;5.75;3.08;;;;;;;;;;5824501;24;32130;-66
2021/10/27 00:51:17;;;;;;;5.47;3.80;;;;;;;;;;5824470;24;32327;-66
2021/10/27 00:53:46;;;;;;;3.70;2.55;;;;;;;;;;5824574;24;32347;-65
2021/10/27 00:56:15;;;;;;;5.25;3.20;;;;;;;;;;5824202;24;34931;-65
2021/10/27 00:58:43;;;;;;;4.25;2.85;;;;;;;;;;5824398;24;32260;-66
2021/10/27 01:01:10;;;;;;;4.25;3.17;;;;;;;;;;5824154;24;32273;-66
2021/10/27 01:03:37;;;;;;;6.25;3.38;;;;;;;;;;5824061;24;32149;-66
2021/10/27 01:06:05;;;;;;;4.80;3.05;;;;;;;;;;5824211;24;35185;-66
2021/10/27 01:08:33;;;;;;;5.88;3.88;;;;;;;;;;5824259;24;32472;-65
2021/10/27 01:11:00;;;;;;;4.22;3.38;;;;;;;;;;5823893;24;32451;-66
2021/10/27 01:13:28;;;;;;;5.75;3.35;;;;;;;;;;5823864;24;32320;-66
2021/10/27 01:15:55;;;;;;;5.05;2.90;;;;;;;;;;5820548;24;32211;-66
2021/10/27 01:18:22;;;;;;;5.88;3.05;;;;;;;;;;5797390;24;34733;-67
2021/10/27 01:20:50;;;;;;;4.35;3.13;;;;;;;;;;5822996;24;32297;-66
2021/10/27 01:23:17;;;;;;;5.35;3.92;;;;;;;;;;5822630;24;32401;-66
2021/10/27 01:25:44;;;;;;;5.60;2.75;;;;;;;;;;5824015;24;32751;-67
2021/10/27 01:28:11;;;;;;;5.25;3.35;;;;;;;;;;5823974;24;34242;-67
2021/10/27 01:30:37;;;;;;;5.63;3.95;;;;;;;;;;5822476;24;32464;-67
2021/10/27 01:33:04;;;;;;;6.72;4.00;;;;;;;;;;5823884;24;32309;-66
2021/10/27 01:35:31;;;;;;;9.05;3.63;;;;;;;;;;5820698;24;32327;-67
2021/10/27 01:37:59;;;;;;;4.45;2.85;;;;;;;;;;5820094;24;32382;-67
2021/10/27 01:40:26;;;;;;;5.90;3.08;;;;;;;;;;5819516;24;35600;-66
2021/10/27 01:42:54;;;;;;;;;;;;;;;;;;5820237;24;32601;-67
2021/10/27 01:45:21;;;;;;;5.78;3.92;;;;;;;;;;5819775;24;32438;-66
2021/10/27 01:47:48;;;;;;;6.40;3.63;;;;;;;;;;5820185;24;32512;-67
2021/10/27 01:50:15;;;;;;;5.68;3.80;;;;;;;;;;5821667;24;34698;-67
2021/10/27 01:52:42;;;;;;;8.98;3.13;;;;;;;;;;5823829;24;32340;-67
2021/10/27 01:55:11;;;;;;;6.72;3.95;;;;;;;;;;5823915;24;32312;-66
2021/10/27 01:57:38;;;;;;;4.82;3.40;;;;;;;;;;5824083;24;32292;-66
2021/10/27 02:00:06;;;;;;;5.55;3.80;;;;;;;;;;5824106;24;32206;-67
2021/10/27 02:02:33;;;;;;;5.97;3.13;;;;;;;;;;5823763;24;33994;-67
2021/10/27 02:05:00;;;;;;;7.07;4.07;;;;;;;;;;5823402;24;32382;-66
2021/10/27 02:07:27;;;;;;;5.63;3.05;;;;;;;;;;5823678;24;32264;-66
2021/10/27 02:09:53;;;;;;;5.32;3.25;;;;;;;;;;5824116;24;32344;-66
2021/10/27 02:12:21;;;;;;;6.03;3.90;;;;;;;;;;5823569;24;34085;-65
2021/10/27 02:14:48;;;;;;;6.65;3.38;;;;;;;;;;5823699;24;32208;-66
2021/10/27 02:17:14;;;;;;;5.38;3.22;;;;;;;;;;5823536;24;32136;-67
2021/10/27 02:19:41;;;;;;;6.32;4.32;;;;;;;;;;5822953;24;32230;-66
2021/10/27 02:22:08;;;;;;;4.43;3.85;;;;;;;;;;5823676;24;32074;-64
2021/10/27 02:24:34;;;;;;;7.10;3.70;;;;;;;;;;5823216;24;34521;-65
2021/10/27 02:27:01;;;;;;;7.07;4.53;;;;;;;;;;5823367;24;32296;-64
2021/10/27 02:29:29;;;;;;;7.20;4.43;;;;;;;;;;5823333;24;32263;-65
2021/10/27 02:31:56;;;;;;;5.88;2.92;;;;;;;;;;5823327;24;32410;-66
2021/10/27 02:34:22;;;;;;;8.23;4.10;;;;;;;;;;5823409;24;34604;-66
2021/10/27 02:36:49;;;;;;;5.50;3.72;;;;;;;;;;5823548;24;32229;-65
2021/10/27 02:39:16;;;;;;;6.82;3.97;;;;;;;;;;5823613;24;32252;-66
2021/10/27 02:41:42;;;;;;;4.32;3.03;;;;;;;;;;5823638;24;32268;-67
2021/10/27 02:44:09;;;;;;;6.25;3.38;;;;;;;;;;5823806;24;32348;-67
2021/10/27 02:46:37;;;;;;;5.90;4.03;;;;;;;;;;5823503;24;34769;-66
2021/10/27 02:49:03;;;;;;;4.75;3.70;;;;;;;;;;5823709;24;32250;-66
2021/10/27 02:51:30;;;;;;;6.05;3.05;;;;;;;;;;5824709;24;32244;-67
2021/10/27 02:53:57;;;;;;;6.00;4.15;;;;;;;;;;5824943;24;32189;-66
2021/10/27 02:56:24;;;;;;;6.32;2.95;;;;;;;;;;5824721;24;35529;-66
2021/10/27 02:58:51;;;;;;;6.60;3.85;;;;;;;;;;5824882;24;32486;-67
2021/10/27 03:01:17;;;;;;;6.45;3.50;;;;;;;;;;5824658;24;32266;-68
2021/10/27 03:03:46;;;;;;;5.57;3.35;;;;;;;;;;5824652;24;32301;-66
2021/10/27 03:06:13;;;;;;;5.47;3.13;;;;;;;;;;5824768;24;32461;-66
2021/10/27 03:08:40;;;;;;;6.28;4.45;;;;;;;;;;5824389;24;34544;-67
2021/10/27 03:11:07;;;;;;;6.75;4.32;;;;;;;;;;5824769;24;32216;-66
2021/10/27 03:13:33;;;;;;;7.03;4.22;;;;;;;;;;5824182;24;32303;-69
2021/10/27 03:16:00;;;;;;;5.63;4.18;;;;;;;;;;5823425;24;32980;-67
2021/10/27 03:18:26;;;;;;;7.50;3.97;;;;;;;;;;5823310;24;34597;-66
2021/10/27 03:20:55;;;;;;;8.52;4.05;;;;;;;;;;5823001;24;32323;-67
2021/10/27 03:23:21;;;;;;;6.43;4.50;;;;;;;;;;5823214;24;32182;-67
2021/10/27 03:25:48;;;;;;;5.45;3.80;;;;;;;;;;5823253;24;32361;-70
2021/10/27 03:28:14;;;;;;;6.40;4.20;;;;;;;;;;5823379;24;32344;-69
2021/10/27 03:30:41;;;;;;;10.32;3.63;;;;;;;;;;5823664;24;35058;-69
2021/10/27 03:33:08;;;;;;;8.27;3.35;;;;;;;;;;5824735;24;32202;-68
2021/10/27 03:35:34;;;;;;;5.75;2.85;;;;;;;;;;5824874;24;32241;-67
2021/10/27 03:38:03;;;;;;;4.72;2.78;;;;;;;;;;5825202;24;32309;-68
2021/10/27 03:40:29;;;;;;;5.68;2.80;;;;;;;;;;5824860;24;35352;-67
2021/10/27 03:42:56;;;;;;;7.13;3.85;;;;;;;;;;5824511;24;32788;-68
2021/10/27 03:45:22;;;;;;;6.00;3.92;;;;;;;;;;5821958;24;32248;-68
2021/10/27 03:47:49;;;;;;;8.07;3.72;;;;;;;;;;5823308;24;32322;-72
2021/10/27 03:50:16;;;;;;;8.95;4.18;;;;;;;;;;5825021;24;32391;-71
2021/10/27 03:52:44;;;;;;;5.05;3.25;;;;;;;;;;5823987;24;35172;-68
2021/10/27 03:55:13;;;;;;;5.03;2.90;;;;;;;;;;5824086;24;32277;-70
2021/10/27 03:57:39;;;;;;;5.75;3.15;;;;;;;;;;5824632;24;32314;-70
2021/10/27 04:00:08;;;;;;;5.60;2.90;;;;;;;;;;5824419;24;32339;-70
2021/10/27 04:02:38;;;;;;;6.95;3.53;;;;;;;;;;5823771;24;35072;-67
2021/10/27 04:05:06;;;;;;;6.57;3.47;;;;;;;;;;5822269;24;32292;-71
2021/10/27 04:07:36;;;;;;;4.18;3.78;;;;;;;;;;5823679;24;32332;-68
2021/10/27 04:10:06;;;;;;;5.55;3.30;;;;;;;;;;5824407;24;32326;-72
2021/10/27 04:12:34;;;;;;;6.53;3.65;;;;;;;;;;5824769;24;32318;-68
2021/10/27 04:15:01;;;;;;;5.88;3.38;;;;;;;;;;5824607;24;34390;-70
2021/10/27 04:17:28;;;;;;;6.22;3.50;;;;;;;;;;5824307;24;32333;-70
2021/10/27 04:19:55;;;;;;;4.65;3.30;;;;;;;;;;5824320;24;32229;-68
2021/10/27 04:22:23;;;;;;;4.93;3.03;;;;;;;;;;5824639;24;32356;-68
2021/10/27 04:24:49;;;;;;;5.32;3.67;;;;;;;;;;5824154;24;35119;-68
2021/10/27 04:27:16;;;;;;;4.32;2.83;;;;;;;;;;5824610;24;32405;-71
2021/10/27 04:29:44;;;;;;;5.35;3.45;;;;;;;;;;5824346;24;32431;-72
2021/10/27 04:32:11;;;;;;;4.63;2.95;;;;;;;;;;5824157;24;32351;-68
2021/10/27 04:34:38;;;;;;;5.47;3.05;;;;;;;;;;5824301;24;32238;-69
2021/10/27 04:37:05;;;;;;;6.43;3.00;;;;;;;;;;5824002;24;34494;-69
2021/10/27 04:39:32;;;;;;;6.75;4.22;;;;;;;;;;5824421;24;32312;-68
2021/10/27 04:41:58;;;;;;;4.97;3.42;;;;;;;;;;5800054;24;32340;-73
2021/10/27 04:44:25;;;;;;;4.13;2.85;;;;;;;;;;5824482;24;32359;-70
2021/10/27 04:46:53;;;;;;;5.32;3.65;;;;;;;;;;5824219;24;34093;-73
2021/10/27 04:49:20;;;;;;;6.53;3.58;;;;;;;;;;5824307;24;32337;-70
2021/10/27 04:51:47;;;;;;;5.35;3.00;;;;;;;;;;5824164;24;32332;-71
2021/10/27 04:54:14;;;;;;;5.95;3.75;;;;;;;;;;5823880;24;32229;-68
2021/10/27 04:56:40;;;;;;;5.75;3.47;;;;;;;;;;5823723;24;32419;-68
2021/10/27 04:59:07;;;;;;;5.35;3.17;;;;;;;;;;5823945;24;32324;-70
2021/10/27 05:01:34;;;;;;;5.10;3.40;;;;;;;;;;5822150;24;32316;-70
2021/10/27 05:04:02;;;;;;;5.85;2.90;;;;;;;;;;5821825;24;32453;-68
2021/10/27 05:06:28;;;;;;;6.00;3.13;;;;;;;;;;5824362;24;32296;-67
2021/10/27 05:08:55;;;;;;;6.47;3.30;;;;;;;;;;5823923;24;35560;-68
2021/10/27 05:11:22;;;;;;;6.05;3.25;;;;;;;;;;5816666;24;32471;-71
2021/10/27 05:13:48;;;;;;;5.93;3.53;;;;;;;;;;5820579;24;32355;-67
2021/10/27 05:16:15;;;;;;;9.18;4.10;;;;;;;;;;5824049;24;32307;-73
2021/10/27 05:18:42;;;;;;;5.20;3.10;;;;;;;;;;5823709;24;32244;-67
2021/10/27 05:21:10;;;;;;;6.07;3.40;;;;;;;;;;5823054;24;32245;-68
2021/10/27 05:23:36;;;;;;;7.28;2.90;;;;;;;;;;5823396;24;32264;-67
2021/10/27 05:26:04;;;;;;;5.57;3.45;;;;;;;;;;5823394;24;32332;-70
2021/10/27 05:28:32;;;;;;;6.40;3.75;;;;;;;;;;5823495;24;32433;-66
2021/10/27 05:30:58;;;;;;;7.50;3.20;;;;;;;;;;5823111;24;34103;-67
2021/10/27 05:33:25;;;;;;;5.05;3.03;;;;;;;;;;5822879;24;32263;-67
2021/10/27 05:35:52;;;;;;;7.53;3.00;;;;;;;;;;5823007;24;32292;-67
2021/10/27 05:38:20;;;;;;;8.05;3.80;;;;;;;;;;5823409;24;32227;-69
2021/10/27 05:40:46;;;;;;;7.05;3.63;;;;;;;;;;5823319;24;32193;-69
2021/10/27 05:43:14;;;;;;;10.43;3.85;;;;;;;;;;5823200;24;32375;-69
2021/10/27 05:45:42;;;;;;;5.07;3.38;;;;;;;;;;5822690;24;32245;-69
2021/10/27 05:48:10;;;;;;;5.03;3.67;;;;;;;;;;5823232;24;32243;-67
2021/10/27 05:50:43;;;;;;;7.25;3.50;;;;;;;;;;5823655;24;32363;-68
2021/10/27 05:55:56;;;;;;;6.97;3.55;;;;;;;;;;5823369;24;32338;-69
2021/10/27 05:58:22;;;;;;;6.38;3.00;;;;;;;;;;5822474;24;32096;-68
2021/10/27 06:00:49;;;;;;;6.05;3.80;;;;;;;;;;5823094;24;32120;-67
2021/10/27 06:03:16;;;;;;;7.60;3.60;;;;;;;;;;5822731;24;32595;-68
2021/10/27 06:05:42;;;;;;;6.45;3.50;;;;;;;;;;5821962;24;32311;-68
2021/10/27 06:08:09;;;;;;;11.63;4.32;;;;;;;;;;5821699;24;32240;-67
2021/10/27 06:10:36;;;;;;;5.72;3.38;;;;;;;;;;5819194;24;32363;-67
2021/10/27 06:13:06;;;;;;;4.88;3.25;;;;;;;;;;5821377;24;32398;-68
2021/10/27 06:15:35;;;;;;;8.85;3.38;;;;;;;;;;5821087;24;34358;-67
2021/10/27 06:18:02;;;;;;;7.65;3.63;;;;;;;;;;5814307;24;32472;-67
2021/10/27 06:20:30;;;;;;;6.75;3.55;;;;;;;;;;5818497;24;32355;-67
2021/10/27 06:23:02;;;;;;;9.02;3.65;;;;;;;;;;5822203;24;32245;-67
2021/10/27 06:25:30;;;;;;;7.95;3.55;;;;;;;;;;5823610;24;32252;-67
2021/10/27 06:28:10;;;;;;;8.43;3.88;;;;;;;;;;5824781;24;32232;-68
2021/10/27 06:30:45;;;;;;;5.68;3.47;;;;;;;;;;5823912;24;32275;-68
2021/10/27 06:35:57;;;;;;;7.00;3.72;;;;;;;;;;5824624;24;32194;-69
2021/10/27 06:46:44;;;;;;;9.05;3.80;;;;;;;;;;5824438;24;32528;-68
2021/10/27 06:49:11;;;;;;;5.80;3.20;;;;;;;;;;5824107;24;32426;-69
2021/10/27 06:51:38;;;;;;;5.55;3.75;;;;;;;;;;5824467;24;32239;-68
2021/10/27 06:54:05;;;;;;;7.03;3.78;;;;;;;;;;5824539;24;32234;-68
2021/10/27 06:56:33;;;;;;;8.10;3.88;;;;;;;;;;5824716;24;32354;-68
2021/10/27 06:59:08;;;;;;;7.20;3.63;;;;;;;;;;5800865;24;32328;-68
2021/10/27 07:06:51;;;;;;;6.38;2.92;;;;;;;;;;5824225;24;32300;-70
2021/10/27 07:15:00;;;;;;;7.07;3.13;;;;;;;;;;5823978;24;32644;-68
2021/10/27 07:17:27;;;;;;;5.68;3.10;;;;;;;;;;5824238;24;32227;-68
2021/10/27 07:19:55;;;;;;;4.78;2.92;;;;;;;;;;5820772;24;32419;-68
2021/10/27 07:22:22;;;;;;;6.03;4.20;;;;;;;;;;5817402;24;32411;-68
2021/10/27 07:24:49;;;;;;;5.88;3.83;;;;;;;;;;5822803;24;33963;-68
2021/10/27 07:27:15;;;;;;;5.35;3.03;;;;;;;;;;5823435;24;32395;-68
2021/10/27 07:29:43;;;;;;;5.60;3.40;;;;;;;;;;5799876;24;32364;-68
2021/10/27 07:32:12;;;;;;;6.05;3.67;;;;;;;;;;5823758;24;32443;-70
2021/10/27 07:34:42;;;;;;;7.10;4.00;;;;;;;;;;5823789;24;34908;-67
2021/10/27 07:42:23;;;;;;;8.38;3.45;;;;;;;;;;5821688;24;32261;-69
2021/10/27 07:44:50;;;;;;;5.85;3.10;;;;;;;;;;5823173;24;32429;-68
2021/10/27 07:47:17;;;;;;;6.75;3.13;;;;;;;;;;5822747;24;35586;-67
2021/10/27 07:49:43;;;;;;;8.27;3.65;;;;;;;;;;5822919;24;32593;-67
2021/10/27 07:52:12;;;;;;;6.65;3.20;;;;;;;;;;5821500;24;32414;-68
2021/10/27 07:54:39;;;;;;;5.68;3.35;;;;;;;;;;5822449;24;32166;-67
2021/10/27 07:57:06;;;;;;;4.57;3.20;;;;;;;;;;5821527;24;34069;-68
2021/10/27 07:59:33;;;;;;;6.53;3.03;;;;;;;;;;5823312;24;32264;-68
2021/10/27 08:02:04;;;;;;;7.80;4.00;;;;;;;;;;5822187;24;32388;-69
2021/10/27 08:04:30;;;;;;;7.03;3.55;;;;;;;;;;5821513;24;32316;-68
2021/10/27 08:06:57;;;;;;;5.88;3.90;;;;;;;;;;5822961;24;32267;-68
2021/10/27 08:09:25;;;;;;;5.53;3.78;;;;;;;;;;5823580;24;33978;-69
2021/10/27 08:11:52;;;;;;;5.65;3.42;;;;;;;;;;5822779;24;32456;-69
2021/10/27 08:14:18;;;;;;;6.70;3.72;;;;;;;;;;5823420;24;32261;-67
2021/10/27 08:16:45;;;;;;;8.23;3.53;;;;;;;;;;5823838;24;32438;-68
2021/10/27 08:19:12;;;;;;;6.53;3.45;;;;;;;;;;5821797;24;34006;-69
2021/10/27 08:21:40;;;;;;;6.10;3.70;;;;;;;;;;5823128;24;32420;-67
2021/10/27 08:24:09;;;;;;;6.10;4.10;;;;;;;;;;5819806;24;32340;-67
2021/10/27 08:26:45;;;;;;;7.20;3.67;;;;;;;;;;5823738;24;32149;-67
2021/10/27 08:29:13;;;;;;;7.13;2.92;;;;;;;;;;5823614;24;32269;-69
2021/10/27 08:31:42;;;;;;;6.65;3.42;;;;;;;;;;5819801;24;35212;-68
2021/10/27 08:34:14;;;;;;;6.40;4.35;;;;;;;;;;5799656;24;32335;-69
2021/10/27 08:36:41;;;;;;;5.50;3.33;;;;;;;;;;5823473;24;32296;-68
2021/10/27 08:39:08;;;;;;;4.85;3.00;;;;;;;;;;5823561;24;32260;-73
2021/10/27 08:41:38;;;;;;;7.85;3.78;;;;;;;;;;5822429;24;35769;-68
2021/10/27 08:44:06;;;;;;;5.05;3.55;;;;;;;;;;5821097;24;32462;-68
2021/10/27 08:46:34;;;;;;;6.78;3.25;;;;;;;;;;5822398;24;32310;-69
2021/10/27 08:49:03;;;;;;;7.85;3.53;;;;;;;;;;5823581;24;32387;-68
2021/10/27 08:51:31;;;;;;;7.00;3.05;;;;;;;;;;5823527;24;32366;-68
2021/10/27 08:53:58;;;;;;;9.30;3.67;;;;;;;;;;5822890;24;34939;-69
2021/10/27 08:56:26;;;;;;;8.07;3.97;;;;;;;;;;5821606;24;32367;-67
2021/10/27 08:59:11;;;;;;;6.40;3.38;;;;;;;;;;5821318;24;32359;-69
2021/10/27 09:01:51;;;;;;;6.22;3.33;;;;;;;;;;5820859;24;32390;-69
2021/10/27 09:04:40;;;;;;;6.35;3.53;;;;;;;;;;5821144;24;35041;-68
2021/10/27 10:05:47;;;;;;;7.50;4.15;;;;;;;;;;5822939;24;32431;-69
2021/10/27 10:08:16;;;;;;;5.65;3.15;;;;;;;;;;5822905;24;34984;-68
2021/10/27 10:10:45;;;;;;;4.95;2.90;;;;;;;;;;5822887;24;32586;-68
2021/10/27 10:13:12;;;;;;;5.18;3.13;;;;;;;;;;5822062;24;32584;-68
2021/10/27 10:15:39;;;;;;;4.93;3.08;;;;;;;;;;5823345;24;32448;-67
2021/10/27 10:18:07;;;;;;;6.00;3.05;;;;;;;;;;5823285;24;33965;-69
2021/10/27 10:20:36;;;;;;;4.57;3.30;;;;;;;;;;5823309;24;32663;-67
2021/10/27 10:23:20;;;;;;;8.00;3.53;;;;;;;;;;5822812;24;32340;-67
2021/10/27 10:25:53;;;;;;;5.97;3.38;;;;;;;;;;5822357;24;32368;-69
2021/10/27 10:28:23;;;;;;;4.75;3.00;;;;;;;;;;5822830;24;32314;-67
2021/10/27 10:31:12;;;;;;;5.55;3.40;;;;;;;;;;5822618;24;34425;-68
2021/10/27 10:33:41;;;;;;;4.88;3.40;;;;;;;;;;5797455;24;32476;-68
2021/10/27 10:36:14;;;;;;;5.57;3.22;;;;;;;;;;5822491;24;32467;-68
2021/10/27 11:39:55;;;;;;;6.22;3.50;;;;;;;;;;5821764;24;32627;-68
2021/10/27 11:41:59;;;;;;;6.10;3.33;;;;;;;;;;5811886;24;32258;-68
2021/10/27 11:44:36;;;;;;;6.18;3.40;;;;;;;;;;5819667;24;32569;-68
2021/10/27 11:47:08;;;;;;;6.68;3.90;;;;;;;;;;5822297;24;34031;-69
2021/10/27 11:49:37;;;;;;;5.60;3.35;;;;;;;;;;5822551;24;32206;-70
2021/10/27 11:52:05;;;;;;;5.90;3.28;;;;;;;;;;5818711;24;32304;-69
2021/10/27 11:54:34;;;;;;;6.28;3.13;;;;;;;;;;5798414;24;32313;-68
2021/10/27 11:57:03;;;;;;;5.68;3.53;;;;;;;;;;5822089;24;33890;-69
2021/10/27 11:59:40;;;;;;;5.75;3.65;;;;;;;;;;5821411;24;32265;-68
2021/10/27 12:02:08;;;;;;;6.15;3.45;;;;;;;;;;5822408;24;32669;-67
2021/10/27 12:04:38;;;;;;;4.85;2.95;;;;;;;;;;5821313;24;32345;-68
2021/10/27 12:07:14;;;;;;;7.97;3.47;;;;;;;;;;5798541;24;32379;-68
2021/10/27 12:10:02;;;;;;;5.82;3.53;;;;;;;;;;5822168;24;35382;-68
2021/10/27 12:18:05;;;;;;;5.72;3.40;;;;;;;;;;5821570;24;32323;-69
2021/10/27 12:20:38;;;;;;;4.25;2.65;;;;;;;;;;5821474;24;33975;-68
2021/10/27 12:23:06;;;;;;;6.90;2.92;;;;;;;;;;5821195;24;32274;-71
2021/10/27 12:25:33;;;;;;;7.10;3.40;;;;;;;;;;5821784;24;32330;-68
2021/10/27 12:28:04;;;;;;;6.22;3.70;;;;;;;;;;5821221;24;32443;-68
2021/10/27 12:30:41;;;;;;;6.20;3.65;;;;;;;;;;5797471;24;32402;-71
2021/10/27 12:33:09;;;;;;;5.85;3.35;;;;;;;;;;5820341;24;34835;-66
2021/10/27 12:35:36;;;;;;;7.78;2.97;;;;;;;;;;5820925;24;32329;-69
2021/10/27 12:38:19;;;;;;;6.88;3.65;;;;;;;;;;5821610;24;33047;-68
2021/10/27 12:40:48;;;;;;;6.85;3.42;;;;;;;;;;5821088;24;32411;-67
2021/10/27 12:43:17;;;;;;;8.25;4.30;;;;;;;;;;5821161;24;34436;-67
2021/10/27 12:45:47;;;;;;;7.93;3.45;;;;;;;;;;5821244;24;32363;-68
2021/10/27 12:48:17;;;;;;;7.25;3.25;;;;;;;;;;5818984;24;32517;-67
2021/10/27 12:50:53;;;;;;;8.02;3.45;;;;;;;;;;5819798;24;32396;-70
2021/10/27 12:53:31;;;;;;;8.27;4.03;;;;;;;;;;5820935;24;32170;-67
2021/10/27 12:56:07;;;;;;;6.43;3.42;;;;;;;;;;5815586;24;34415;-68
2021/10/27 12:58:34;;;;;;;6.00;3.40;;;;;;;;;;5821347;24;32143;-68
2021/10/27 13:01:11;;;;;;;6.07;3.78;;;;;;;;;;5821173;24;32286;-68
2021/10/27 13:04:06;;;;;;;8.30;3.88;;;;;;;;;;5817204;24;32383;-68
2021/10/27 13:06:50;;;;;;;6.47;3.78;;;;;;;;;;5795296;24;35567;-68
2021/10/27 13:30:14;;;;;;;6.53;3.80;;;;;;;;;;5794430;24;35505;-67
2021/10/27 13:32:44;;;;;;;8.32;4.32;;;;;;;;;;5794711;24;32415;-67
2021/10/27 13:35:12;;;;;;;6.68;3.70;;;;;;;;;;5794093;24;32546;-67
2021/10/27 13:37:39;;;;;;;7.30;3.92;;;;;;;;;;5794641;24;32269;-68
2021/10/27 13:40:07;;;;;;;7.65;4.97;;;;;;;;;;5795329;24;32575;-67
2021/10/27 13:42:46;;;;;;;6.15;3.47;;;;;;;;;;5794655;24;35847;-68
2021/10/27 13:59:06;;;;;;;8.10;3.97;;;;;;;;;;5794732;24;32391;-66
2021/10/27 14:07:04;;;;;;;8.82;4.70;;;;;;;;;;5791115;24;34128;-67
2021/10/27 14:09:39;;;;;;;8.50;4.40;;;;;;;;;;5794759;24;32438;-67
2021/10/27 14:15:20;;;;;;;8.15;4.60;;;;;;;;;;5794575;24;32367;-67
2021/10/27 15:20:16;;;;;;;35.67;10.52;;;;;;;;;;5794898;24;33896;-68
2021/10/27 15:23:03;;;;;;;28.83;9.60;;;;;;;;;;5794555;24;32372;-67
2021/10/27 15:33:42;;;;;;;17.42;7.38;;;;;;;;;;5794854;24;32390;-70
2021/10/27 15:36:29;;;;;;;23.38;8.38;;;;;;;;;;5794614;24;32461;-67
2021/10/27 15:41:55;;;;;;;20.88;7.10;;;;;;;;;;5793474;24;32669;-67
2021/10/27 15:44:34;;;;;;;17.77;7.03;;;;;;;;;;5793238;24;35025;-67
2021/10/27 15:52:33;;;;;;;23.48;7.57;;;;;;;;;;5793113;24;32368;-68
2021/10/27 15:55:00;;;;;;;19.20;7.82;;;;;;;;;;5793214;24;34280;-68
2021/10/27 15:57:27;;;;;;;17.95;7.38;;;;;;;;;;5794217;24;32462;-68
2021/10/27 15:59:55;;;;;;;15.75;7.45;;;;;;;;;;5794061;24;32573;-70
2021/10/27 16:02:22;;;;;;;15.38;7.40;;;;;;;;;;5793736;24;32314;-70
2021/10/27 16:04:49;;;;;;;17.25;7.10;;;;;;;;;;5793065;24;32530;-70
2021/10/27 16:07:17;;;;;;;14.48;7.63;;;;;;;;;;5793384;24;32463;-68
2021/10/27 16:09:45;;;;;;;14.90;7.03;;;;;;;;;;5793417;24;32230;-68
2021/10/27 16:12:12;;;;;;;13.13;7.03;;;;;;;;;;5792012;24;32400;-67
2021/10/27 16:14:39;;;;;;;19.00;7.40;;;;;;;;;;5788005;24;32373;-68
2021/10/27 16:17:07;;;;;;;15.43;7.20;;;;;;;;;;5788031;24;35148;-67
2021/10/27 16:19:34;;;;;;;12.80;6.43;;;;;;;;;;5791214;24;32739;-67
2021/10/27 16:22:02;;;;;;;12.63;7.45;;;;;;;;;;5791954;24;32378;-69
2021/10/27 16:24:29;;;;;;;15.18;7.35;;;;;;;;;;5791250;24;32764;-67
2021/10/27 16:26:57;;;;;;;13.98;7.43;;;;;;;;;;5792237;24;32471;-66
2021/10/27 16:29:25;;;;;;;14.52;7.72;;;;;;;;;;5792859;24;32610;-68
2021/10/27 16:31:51;;;;;;;;;;;;;;;;;;5793098;24;33034;-69
2021/10/27 16:34:19;;;;;;;13.18;7.20;;;;;;;;;;5791803;24;32288;-68
2021/10/27 16:36:48;;;;;;;15.18;8.85;;;;;;;;;;5791166;24;32421;-67
2021/10/27 16:39:16;;;;;;;14.63;7.63;;;;;;;;;;5792707;24;35450;-68
2021/10/27 16:41:43;;;;;;;14.75;8.02;;;;;;;;;;5792611;24;32737;-69
2021/10/27 16:44:09;;;;;;;15.95;7.70;;;;;;;;;;5794181;24;32648;-69
2021/10/27 16:46:36;;;;;;;14.10;7.97;;;;;;;;;;5794967;24;32284;-68
2021/10/27 16:49:03;;;;;;;13.98;8.82;;;;;;;;;;5795081;24;32772;-71
2021/10/27 16:51:32;;;;;;;25.95;10.40;;;;;;;;;;5795131;24;32392;-70
2021/10/27 16:54:01;;;;;;;30.58;11.43;;;;;;;;;;5794350;24;32454;-69
2021/10/27 16:56:28;;;;;;;34.05;12.23;;;;;;;;;;5793717;24;32690;-70
2021/10/27 16:58:55;;;;;;;29.45;11.88;;;;;;;;;;5795009;24;32402;-69
2021/10/27 17:01:22;;;;;;;28.73;11.68;;;;;;;;;;5794887;24;34034;-69
2021/10/27 17:03:49;;;;;;;23.17;10.45;;;;;;;;;;5791194;24;32394;-69
2021/10/27 17:06:16;;;;;;;23.52;10.63;;;;;;;;;;5793514;24;32351;-70
2021/10/27 17:08:44;;;;;;;24.33;10.45;;;;;;;;;;5793692;24;32191;-69
2021/10/27 17:11:11;;;;;;;23.48;9.60;;;;;;;;;;5794113;24;32525;-69
2021/10/27 17:13:38;;;;;;;21.85;9.85;;;;;;;;;;5793872;24;32404;-71
2021/10/27 17:16:05;;;;;;;21.83;10.13;;;;;;;;;;5794262;24;32251;-69
2021/10/27 17:18:34;;;;;;;20.95;9.38;;;;;;;;;;5786601;24;33133;-69
2021/10/27 17:21:03;;;;;;;20.55;9.43;;;;;;;;;;5793996;24;32316;-69
2021/10/27 17:23:32;;;;;;;20.95;9.05;;;;;;;;;;5793856;24;34779;-66
2021/10/27 17:26:01;;;;;;;17.30;9.48;;;;;;;;;;5793733;24;32365;-68
2021/10/27 17:28:27;;;;;;;18.27;9.48;;;;;;;;;;5793734;24;32325;-66
2021/10/27 17:30:56;;;;;;;20.05;9.20;;;;;;;;;;5794021;24;32355;-68
2021/10/27 17:33:23;;;;;;;23.23;9.75;;;;;;;;;;5794159;24;32321;-68
2021/10/27 17:35:51;;;;;;;22.30;10.18;;;;;;;;;;5793963;24;32372;-69
2021/10/27 17:38:18;;;;;;;21.40;9.20;;;;;;;;;;5793838;24;32427;-69
2021/10/27 17:40:47;;;;;;;21.77;9.02;;;;;;;;;;5792574;24;32159;-67
2021/10/27 17:43:15;;;;;;;21.95;8.68;;;;;;;;;;5791220;24;32551;-67
2021/10/27 17:45:44;;;;;;;19.60;9.85;;;;;;;;;;5791458;24;34767;-67
2021/10/27 17:48:17;;;;;;;17.42;8.23;;;;;;;;;;5792101;24;32457;-68
2021/10/27 17:58:34;;;;;;;17.83;8.20;;;;;;;;;;5769979;24;32581;-66
2021/10/27 18:01:05;;;;;;;14.43;8.35;;;;;;;;;;5793315;24;32574;-67
2021/10/27 18:03:33;;;;;;;15.07;8.07;;;;;;;;;;5794265;24;32505;-67
2021/10/27 18:06:01;;;;;;;15.23;7.72;;;;;;;;;;5791765;24;32489;-68
2021/10/27 18:08:30;;;;;;;14.93;8.30;;;;;;;;;;5792473;24;35258;-70
2021/10/27 18:11:01;;;;;;;21.02;9.88;;;;;;;;;;5792489;24;32806;-68
2021/10/27 18:13:32;;;;;;;20.77;8.85;;;;;;;;;;5791725;24;32432;-66
2021/10/27 18:16:06;;;;;;;28.38;9.23;;;;;;;;;;5769908;24;32334;-67
2021/10/27 18:18:40;;;;;;;23.80;9.55;;;;;;;;;;5793526;24;33978;-65
2021/10/27 18:21:13;;;;;;;18.75;8.98;;;;;;;;;;5792651;24;32950;-67
2021/10/27 18:23:59;;;;;;;19.80;8.52;;;;;;;;;;5794724;24;32294;-66
2021/10/27 18:39:46;;;;;;;16.55;8.27;;;;;;;;;;5794984;24;32325;-68
2021/10/27 18:42:15;;;;;;;17.00;8.23;;;;;;;;;;5794942;24;34738;-68
2021/10/27 18:44:43;;;;;;;13.73;8.13;;;;;;;;;;5794594;24;32328;-68
2021/10/27 18:47:10;;;;;;;15.43;7.93;;;;;;;;;;5794906;24;32309;-68
2021/10/27 18:49:37;;;;;;;16.92;7.90;;;;;;;;;;5795395;24;32400;-69
2021/10/27 18:52:37;;;;;;;16.95;7.25;;;;;;;;;;5795256;24;32357;-67
2021/10/27 18:54:59;;;;;;;13.18;7.82;;;;;;;;;;5794214;24;34664;-68
2021/10/27 19:13:53;;;;;;;17.45;6.97;;;;;;;;;;5794435;24;32422;-66
2021/10/27 19:16:21;;;;;;;16.60;8.57;;;;;;;;;;5796418;24;32337;-68
2021/10/27 19:18:49;;;;;;;14.45;7.47;;;;;;;;;;5795489;24;34771;-68
2021/10/27 19:21:18;;;;;;;14.88;7.32;;;;;;;;;;5795819;24;32376;-67
2021/10/27 19:23:45;;;;;;;16.55;7.45;;;;;;;;;;5749474;24;32298;-67
2021/10/27 19:28:53;;;;;;;14.48;7.07;;;;;;;;;;5789745;24;34197;-69
2021/10/27 19:31:51;;;;;;;16.10;7.38;;;;;;;;;;5795715;24;32240;-68
2021/10/27 20:07:42;;;;;;;11.45;6.72;;;;;;;;;;5722942;24;33973;-69
2021/10/27 20:12:52;;;;;;;13.73;6.38;;;;;;;;;;5795552;24;32472;-69
2021/10/27 20:53:19;;;;;;;9.15;5.15;;;;;;;;;;5765031;24;32551;-68
2021/10/27 20:55:48;;;;;;;11.20;5.20;;;;;;;;;;5766474;24;35753;-68
2021/10/27 20:58:26;;;;;;;8.70;4.78;;;;;;;;;;5767453;24;32360;-68
2021/10/27 21:01:04;;;;;;;11.50;6.43;;;;;;;;;;5766557;24;32359;-69
2021/10/27 21:14:14;;;;;;;9.23;4.57;;;;;;;;;;5783080;24;32457;-67
2021/10/27 21:16:41;;;;;;;9.07;4.93;;;;;;;;;;5795110;24;32394;-70
2021/10/27 21:19:07;;;;;;;9.23;4.93;;;;;;;;;;5795078;24;34308;-67
2021/10/27 21:21:35;;;;;;;7.15;4.30;;;;;;;;;;5794567;24;32316;-68
2021/10/27 21:24:03;;;;;;;9.60;4.78;;;;;;;;;;5794463;24;32412;-70
2021/10/27 21:26:31;;;;;;;8.32;5.00;;;;;;;;;;5795399;24;32176;-68
2021/10/27 21:34:18;;;;;;;9.63;4.32;;;;;;;;;;5792589;24;32333;-67
2021/10/27 21:44:56;;;;;;;10.20;5.05;;;;;;;;;;5792038;24;32433;-65
2021/10/27 21:47:23;;;;;;;6.57;4.22;;;;;;;;;;5792382;24;32312;-65